Time;durP1;ratioP1;P1;durP2;ratioP2;P2;SDS_P1;SDS_P2;PMS_P1;PMS_P2;Temp;Humidity;BMP_temperature;BMP_pressure;BME280_temperature;BME280_humidity;BME280_pressure;Samples;Min_cycle;Max_cycle;Signal;HPM_P1;HPM_P2
2022/08/07 00:00:36;;;;;;;22.07;15.57;;;;;;;;;;6245138;28;20408;-58
2022/08/07 00:03:42;;;;;;;19.88;14.93;;;;;;;;;;6253985;28;20410;-61
2022/08/07 00:06:42;;;;;;;25.55;15.15;;;;;;;;;;6254048;28;20888;-61
2022/08/07 00:09:43;;;;;;;19.10;15.17;;;;;;;;;;6250923;28;20158;-61
2022/08/07 00:12:44;;;;;;;18.75;15.13;;;;;;;;;;6255121;28;20053;-61
2022/08/07 00:15:44;;;;;;;21.60;16.33;;;;;;;;;;6250195;28;20049;-61
2022/08/07 00:18:45;;;;;;;19.23;14.33;;;;;;;;;;6245545;28;20610;-61
2022/08/07 00:21:46;;;;;;;19.83;15.07;;;;;;;;;;6249425;28;20506;-60
2022/08/07 00:24:46;;;;;;;23.13;15.53;;;;;;;;;;6251750;28;20053;-61
2022/08/07 00:27:47;;;;;;;18.83;13.80;;;;;;;;;;6250992;28;21011;-60
2022/08/07 00:30:48;;;;;;;20.75;13.70;;;;;;;;;;6253142;28;20049;-61
2022/08/07 00:33:48;;;;;;;19.70;14.80;;;;;;;;;;6252836;28;20764;-61
2022/08/07 00:36:49;;;;;;;18.60;13.98;;;;;;;;;;6252769;28;20048;-61
2022/08/07 00:39:53;;;;;;;22.85;14.90;;;;;;;;;;6252205;28;20080;-62
2022/08/07 00:42:53;;;;;;;18.70;14.07;;;;;;;;;;6252350;28;20465;-60
2022/08/07 00:45:54;;;;;;;16.33;12.73;;;;;;;;;;6250197;28;20086;-61
2022/08/07 00:48:55;;;;;;;21.10;13.23;;;;;;;;;;6251374;28;20049;-57
2022/08/07 00:51:55;;;;;;;20.55;12.00;;;;;;;;;;6249164;28;20556;-60
2022/08/07 00:54:56;;;;;;;16.20;12.20;;;;;;;;;;6252776;28;20045;-60
2022/08/07 00:57:57;;;;;;;15.18;12.27;;;;;;;;;;6249075;28;20045;-59
2022/08/07 01:00:57;;;;;;;15.40;12.47;;;;;;;;;;6246838;28;20124;-58
2022/08/07 01:03:58;;;;;;;16.33;12.23;;;;;;;;;;6252978;28;20198;-58
2022/08/07 01:06:58;;;;;;;18.30;12.90;;;;;;;;;;6250365;28;20046;-60
2022/08/07 01:09:59;;;;;;;17.23;11.82;;;;;;;;;;6250729;28;20059;-61
2022/08/07 01:13:00;;;;;;;17.70;11.45;;;;;;;;;;6251431;28;20056;-59
2022/08/07 01:16:02;;;;;;;17.58;12.55;;;;;;;;;;6250117;28;20149;-59
2022/08/07 01:19:06;;;;;;;16.55;10.70;;;;;;;;;;6249166;28;20107;-59
2022/08/07 01:22:07;;;;;;;14.82;11.10;;;;;;;;;;6247758;28;20457;-60
2022/08/07 01:25:10;;;;;;;15.23;11.38;;;;;;;;;;6249260;28;20049;-60
2022/08/07 01:28:10;;;;;;;17.88;13.07;;;;;;;;;;6249703;28;20036;-61
2022/08/07 01:31:12;;;;;;;50.95;15.77;;;;;;;;;;6250038;28;20052;-61
2022/08/07 01:34:13;;;;;;;19.50;14.25;;;;;;;;;;6248589;28;20047;-61
2022/08/07 01:37:16;;;;;;;23.85;15.10;;;;;;;;;;6249961;28;20040;-61
2022/08/07 01:40:19;;;;;;;17.50;13.57;;;;;;;;;;6250466;28;20175;-60
2022/08/07 01:43:20;;;;;;;17.60;12.35;;;;;;;;;;6250713;28;20107;-60
2022/08/07 01:46:21;;;;;;;14.82;11.52;;;;;;;;;;6249044;28;20057;-60
2022/08/07 01:49:21;;;;;;;17.40;12.20;;;;;;;;;;6249746;28;20246;-61
2022/08/07 01:52:27;;;;;;;14.40;11.75;;;;;;;;;;6251576;28;20168;-61
2022/08/07 01:55:35;;;;;;;15.32;11.38;;;;;;;;;;6251600;28;20091;-60
2022/08/07 01:58:42;;;;;;;14.35;11.02;;;;;;;;;;6249309;28;20670;-60
2022/08/07 02:01:47;;;;;;;14.07;9.73;;;;;;;;;;6249703;28;20057;-60
2022/08/07 02:04:57;;;;;;;14.85;10.80;;;;;;;;;;6248085;28;20053;-60
2022/08/07 02:08:01;;;;;;;13.15;10.70;;;;;;;;;;6248335;28;20391;-59
2022/08/07 02:11:03;;;;;;;26.30;11.27;;;;;;;;;;6249658;28;20055;-59
2022/08/07 02:14:06;;;;;;;15.15;10.63;;;;;;;;;;6251325;28;20499;-58
2022/08/07 02:17:09;;;;;;;15.02;10.35;;;;;;;;;;6249176;28;20078;-61
2022/08/07 02:20:10;;;;;;;15.25;12.05;;;;;;;;;;6248270;28;20047;-61
2022/08/07 02:23:12;;;;;;;57.55;18.38;;;;;;;;;;6249842;28;20048;-61
2022/08/07 02:26:14;;;;;;;;;;;;;;;;;;6247940;28;20052;-61
2022/08/07 02:29:15;;;;;;;70.15;17.83;;;;;;;;;;6250732;28;19931;-61
2022/08/07 02:32:17;;;;;;;52.87;18.20;;;;;;;;;;6251385;28;20739;-61
2022/08/07 02:35:19;;;;;;;27.90;16.08;;;;;;;;;;6250295;28;20622;-61
2022/08/07 02:38:24;;;;;;;26.58;17.95;;;;;;;;;;6250786;28;20138;-61
2022/08/07 02:41:26;;;;;;;35.45;16.63;;;;;;;;;;6250492;28;20049;-61
2022/08/07 02:44:27;;;;;;;26.45;17.27;;;;;;;;;;6253056;28;20056;-60
2022/08/07 02:47:27;;;;;;;23.90;16.13;;;;;;;;;;6253765;28;20443;-60
2022/08/07 02:50:31;;;;;;;23.30;16.42;;;;;;;;;;6254293;28;20040;-61
2022/08/07 02:53:36;;;;;;;22.90;16.65;;;;;;;;;;6252364;28;20046;-60
2022/08/07 02:56:39;;;;;;;23.33;16.67;;;;;;;;;;6254554;28;20088;-59
2022/08/07 02:59:45;;;;;;;24.05;16.45;;;;;;;;;;6252314;28;20045;-61
2022/08/07 03:02:48;;;;;;;24.63;16.73;;;;;;;;;;6254891;28;20056;-60
2022/08/07 03:05:51;;;;;;;23.23;16.70;;;;;;;;;;6252941;28;20094;-61
2022/08/07 03:08:53;;;;;;;22.38;15.52;;;;;;;;;;6252199;28;20098;-61
2022/08/07 03:11:53;;;;;;;21.75;16.10;;;;;;;;;;6255153;28;20052;-60
2022/08/07 03:14:57;;;;;;;27.27;15.60;;;;;;;;;;6255650;28;20048;-59
2022/08/07 03:17:59;;;;;;;20.83;15.55;;;;;;;;;;6252838;28;20403;-57
2022/08/07 03:21:00;;;;;;;21.60;16.13;;;;;;;;;;6254836;28;20049;-61
2022/08/07 03:24:01;;;;;;;21.80;15.63;;;;;;;;;;6252728;28;20049;-60
2022/08/07 03:27:03;;;;;;;19.92;14.88;;;;;;;;;;6255038;28;20047;-61
2022/08/07 03:30:04;;;;;;;23.55;15.70;;;;;;;;;;6252488;28;20049;-61
2022/08/07 03:33:07;;;;;;;23.10;15.38;;;;;;;;;;6254570;28;20056;-60
2022/08/07 03:36:10;;;;;;;21.20;14.65;;;;;;;;;;6252301;28;20047;-60
2022/08/07 03:39:12;;;;;;;20.23;14.32;;;;;;;;;;6251244;28;20134;-60
2022/08/07 03:42:15;;;;;;;19.05;13.45;;;;;;;;;;6251931;28;20699;-61
2022/08/07 03:45:18;;;;;;;17.13;12.68;;;;;;;;;;6259893;28;20052;-58
2022/08/07 03:48:19;;;;;;;17.95;14.20;;;;;;;;;;6251235;28;20060;-61
2022/08/07 03:51:20;;;;;;;21.02;14.40;;;;;;;;;;6252149;28;20079;-57
2022/08/07 03:54:21;;;;;;;18.58;13.57;;;;;;;;;;6253622;28;20057;-58
2022/08/07 03:57:24;;;;;;;18.25;13.20;;;;;;;;;;6249815;28;20077;-61
2022/08/07 04:00:25;;;;;;;22.80;15.07;;;;;;;;;;6250190;28;20897;-61
2022/08/07 04:03:26;;;;;;;21.30;15.07;;;;;;;;;;6254316;28;20064;-61
2022/08/07 04:06:27;;;;;;;22.58;15.75;;;;;;;;;;6255553;28;20060;-59
2022/08/07 04:09:28;;;;;;;22.98;16.05;;;;;;;;;;6251991;28;20110;-60
2022/08/07 04:12:30;;;;;;;26.15;16.20;;;;;;;;;;6252521;28;20059;-60
2022/08/07 04:15:30;;;;;;;25.35;16.92;;;;;;;;;;6251615;28;20140;-59
2022/08/07 04:18:31;;;;;;;23.85;16.50;;;;;;;;;;6253540;28;20524;-60
2022/08/07 04:21:32;;;;;;;21.45;14.85;;;;;;;;;;6251001;28;20479;-61
2022/08/07 04:24:33;;;;;;;20.20;15.25;;;;;;;;;;6254170;28;20837;-58
2022/08/07 04:27:34;;;;;;;21.57;14.10;;;;;;;;;;6249071;28;20049;-56
2022/08/07 04:30:35;;;;;;;19.40;13.93;;;;;;;;;;6250157;28;21142;-57
2022/08/07 04:33:36;;;;;;;20.50;14.25;;;;;;;;;;6252666;28;20049;-59
2022/08/07 04:36:39;;;;;;;20.00;15.07;;;;;;;;;;6250994;28;20048;-61
2022/08/07 04:39:40;;;;;;;18.58;14.02;;;;;;;;;;6249905;28;20495;-58
2022/08/07 04:42:40;;;;;;;21.35;15.23;;;;;;;;;;6252239;28;20076;-61
2022/08/07 04:46:00;;;;;;;19.65;14.90;;;;;;;;;;6249234;28;20059;-61
2022/08/07 04:49:13;;;;;;;20.25;14.57;;;;;;;;;;6249271;28;20049;-61
2022/08/07 04:52:27;;;;;;;19.08;14.65;;;;;;;;;;6252023;28;20385;-62
2022/08/07 04:55:39;;;;;;;19.90;14.95;;;;;;;;;;6253392;28;20088;-60
2022/08/07 04:58:46;;;;;;;19.85;14.00;;;;;;;;;;6250793;28;20048;-61
2022/08/07 05:01:51;;;;;;;21.50;15.63;;;;;;;;;;6252779;28;20069;-59
2022/08/07 05:05:01;;;;;;;23.42;15.82;;;;;;;;;;6251101;28;20132;-61
2022/08/07 05:08:09;;;;;;;23.63;14.80;;;;;;;;;;6250043;28;20052;-60
2022/08/07 05:11:13;;;;;;;21.33;14.93;;;;;;;;;;6251420;28;20614;-61
2022/08/07 05:14:38;;;;;;;25.25;15.73;;;;;;;;;;6254942;28;20053;-61
2022/08/07 05:17:39;;;;;;;22.45;15.73;;;;;;;;;;6241675;28;20045;-61
2022/08/07 05:20:44;;;;;;;23.50;16.02;;;;;;;;;;6251512;28;20063;-61
2022/08/07 05:23:50;;;;;;;24.42;16.35;;;;;;;;;;6249206;28;20151;-60
2022/08/07 05:26:54;;;;;;;22.70;16.30;;;;;;;;;;6249971;28;20051;-61
2022/08/07 05:29:55;;;;;;;24.92;15.60;;;;;;;;;;6250915;28;20053;-60
2022/08/07 05:32:57;;;;;;;25.88;17.27;;;;;;;;;;6256072;28;20521;-60
2022/08/07 05:35:59;;;;;;;21.90;15.48;;;;;;;;;;6256109;28;20479;-60
2022/08/07 05:39:00;;;;;;;19.95;14.18;;;;;;;;;;6253714;28;20048;-57
2022/08/07 05:42:02;;;;;;;19.58;13.68;;;;;;;;;;6254593;28;20175;-58
2022/08/07 05:45:04;;;;;;;17.95;11.35;;;;;;;;;;6254742;28;20048;-60
2022/08/07 05:48:05;;;;;;;16.70;10.73;;;;;;;;;;6258681;28;20499;-61
2022/08/07 05:51:08;;;;;;;18.07;10.63;;;;;;;;;;6256639;28;20139;-61
2022/08/07 05:54:10;;;;;;;16.35;11.48;;;;;;;;;;6251714;28;20302;-56
2022/08/07 05:57:13;;;;;;;14.73;11.25;;;;;;;;;;6258151;28;20566;-60
2022/08/07 06:00:15;;;;;;;14.23;10.43;;;;;;;;;;6256000;28;20717;-59
2022/08/07 06:03:18;;;;;;;16.52;11.07;;;;;;;;;;6255487;28;20056;-62
2022/08/07 06:06:19;;;;;;;15.40;10.95;;;;;;;;;;6256314;28;20519;-61
2022/08/07 06:09:20;;;;;;;15.55;11.43;;;;;;;;;;6254874;28;20059;-61
2022/08/07 06:12:21;;;;;;;16.33;10.93;;;;;;;;;;6254331;28;20061;-57
2022/08/07 06:15:23;;;;;;;14.00;10.23;;;;;;;;;;6254243;28;20056;-60
2022/08/07 06:18:23;;;;;;;14.18;9.77;;;;;;;;;;6256834;28;20072;-60
2022/08/07 06:21:24;;;;;;;17.00;10.75;;;;;;;;;;6255090;28;20057;-60
2022/08/07 06:24:25;;;;;;;16.63;11.13;;;;;;;;;;6254612;28;20091;-59
2022/08/07 06:27:26;;;;;;;16.53;11.80;;;;;;;;;;6253869;28;20061;-58
2022/08/07 06:30:26;;;;;;;25.50;18.93;;;;;;;;;;6253984;28;20491;-61
2022/08/07 06:33:27;;;;;;;14.52;9.85;;;;;;;;;;6253131;28;20492;-60
2022/08/07 06:36:29;;;;;;;15.00;10.65;;;;;;;;;;6255638;28;20090;-57
2022/08/07 06:39:31;;;;;;;15.65;11.23;;;;;;;;;;6250622;28;20049;-59
2022/08/07 06:42:36;;;;;;;;;;;;;;;;;;6253560;28;20053;-60
2022/08/07 06:45:37;;;;;;;11.70;7.35;;;;;;;;;;6253441;28;20023;-60
2022/08/07 06:48:38;;;;;;;11.40;7.03;;;;;;;;;;6250316;28;20111;-58
2022/08/07 06:51:39;;;;;;;19.90;14.67;;;;;;;;;;6252681;28;20048;-53
2022/08/07 06:54:41;;;;;;;12.95;8.40;;;;;;;;;;6253240;28;20060;-61
2022/08/07 06:57:44;;;;;;;14.57;8.90;;;;;;;;;;6253575;28;20045;-63
2022/08/07 07:00:45;;;;;;;10.57;7.82;;;;;;;;;;6252629;28;20655;-61
2022/08/07 07:03:45;;;;;;;12.75;8.93;;;;;;;;;;6256632;28;20159;-62
2022/08/07 07:06:46;;;;;;;12.73;6.70;;;;;;;;;;6255117;28;20045;-53
2022/08/07 07:09:48;;;;;;;14.03;9.90;;;;;;;;;;6252204;28;20111;-57
2022/08/07 07:12:54;;;;;;;9.70;6.70;;;;;;;;;;6255604;28;20058;-56
2022/08/07 07:16:01;;;;;;;11.20;8.52;;;;;;;;;;6253760;28;20049;-61
2022/08/07 07:19:05;;;;;;;13.65;9.18;;;;;;;;;;6256880;28;20041;-61
2022/08/07 07:22:08;;;;;;;17.67;11.85;;;;;;;;;;6253327;28;20438;-61
2022/08/07 07:25:11;;;;;;;19.00;13.07;;;;;;;;;;6255113;28;20156;-54
2022/08/07 07:28:17;;;;;;;10.55;8.50;;;;;;;;;;6252592;28;20322;-54
2022/08/07 07:31:24;;;;;;;13.57;11.23;;;;;;;;;;6257621;28;20049;-62
2022/08/07 07:34:29;;;;;;;8.77;5.80;;;;;;;;;;6259025;28;20067;-64
2022/08/07 07:37:32;;;;;;;11.00;6.72;;;;;;;;;;6253365;28;20052;-58
2022/08/07 07:40:35;;;;;;;10.45;4.80;;;;;;;;;;6258659;28;20057;-55
2022/08/07 07:43:40;;;;;;;8.77;4.65;;;;;;;;;;6259310;28;20174;-58
2022/08/07 07:46:42;;;;;;;6.85;4.95;;;;;;;;;;6257900;28;20740;-68
2022/08/07 07:49:45;;;;;;;9.35;6.07;;;;;;;;;;6255130;28;20063;-69
2022/08/07 07:52:47;;;;;;;6.43;4.68;;;;;;;;;;6254171;28;20055;-62
2022/08/07 07:55:51;;;;;;;6.97;4.90;;;;;;;;;;6257568;28;20053;-61
2022/08/07 07:58:53;;;;;;;6.50;4.75;;;;;;;;;;6256028;28;20049;-62
2022/08/07 08:01:55;;;;;;;7.07;4.97;;;;;;;;;;6256574;28;20138;-61
2022/08/07 08:04:56;;;;;;;;;;;;;;;;;;6261665;28;20052;-58
2022/08/07 08:07:56;;;;;;;8.05;4.97;;;;;;;;;;6259791;28;20378;-62
2022/08/07 08:10:59;;;;;;;10.70;5.17;;;;;;;;;;6258151;28;20055;-64
2022/08/07 08:14:00;;;;;;;25.83;19.50;;;;;;;;;;6256713;28;20080;-63
2022/08/07 08:17:01;;;;;;;6.00;4.37;;;;;;;;;;6251544;28;20275;-63
2022/08/07 08:20:05;;;;;;;8.17;5.60;;;;;;;;;;6257105;28;20496;-61
2022/08/07 08:29:50;;;;;;;12.35;8.57;;;;;;;;;;6257591;28;20082;-59
2022/08/07 08:32:57;;;;;;;11.57;8.88;;;;;;;;;;6259739;28;20060;-62
2022/08/07 08:35:59;;;;;;;13.68;8.68;;;;;;;;;;6260112;28;20067;-49
2022/08/07 08:39:02;;;;;;;13.80;8.35;;;;;;;;;;6256396;28;20041;-67
2022/08/07 08:42:06;;;;;;;15.43;9.98;;;;;;;;;;6258147;28;20141;-56
2022/08/07 08:45:25;;;;;;;16.05;12.25;;;;;;;;;;6258691;28;20573;-60
2022/08/07 08:48:38;;;;;;;25.70;16.42;;;;;;;;;;6259854;28;20057;-57
2022/08/07 08:52:17;;;;;;;12.20;9.80;;;;;;;;;;6257164;28;20071;-63
2022/08/07 08:55:35;;;;;;;11.98;9.02;;;;;;;;;;6256192;28;20045;-61
2022/08/07 08:58:51;;;;;;;11.70;8.82;;;;;;;;;;6256264;28;20131;-59
2022/08/07 09:02:00;;;;;;;13.25;8.73;;;;;;;;;;6256784;28;20551;-60
2022/08/07 09:05:36;;;;;;;15.98;9.82;;;;;;;;;;6254865;28;20091;-58
2022/08/07 09:08:56;;;;;;;18.50;11.70;;;;;;;;;;6257713;28;20119;-59
2022/08/07 09:12:07;;;;;;;13.85;9.32;;;;;;;;;;6263030;28;20049;-60
2022/08/07 09:15:13;;;;;;;16.33;12.23;;;;;;;;;;6259396;28;20053;-61
2022/08/07 09:18:54;;;;;;;14.90;10.48;;;;;;;;;;6257958;28;20067;-61
2022/08/07 09:22:32;;;;;;;10.40;7.20;;;;;;;;;;6262122;28;20070;-57
2022/08/07 09:25:48;;;;;;;7.97;6.22;;;;;;;;;;6258640;28;20394;-52
2022/08/07 09:28:57;;;;;;;7.50;5.55;;;;;;;;;;6253447;28;20515;-59
2022/08/07 09:32:30;;;;;;;7.95;5.43;;;;;;;;;;6256041;28;20094;-55
2022/08/07 09:35:49;;;;;;;7.25;4.25;;;;;;;;;;6259125;28;20052;-60
2022/08/07 09:38:57;;;;;;;10.40;6.03;;;;;;;;;;6255334;28;20052;-57
2022/08/07 09:42:15;;;;;;;22.80;12.25;;;;;;;;;;6254234;28;20544;-54
2022/08/07 09:45:34;;;;;;;24.63;12.15;;;;;;;;;;6253566;28;20655;-59
2022/08/07 09:49:01;;;;;;;22.25;9.70;;;;;;;;;;6255008;28;20067;-54
2022/08/07 09:52:20;;;;;;;10.07;6.35;;;;;;;;;;6246505;28;20048;-57
2022/08/07 09:55:28;;;;;;;5.95;3.63;;;;;;;;;;6254850;28;20086;-59
2022/08/07 09:58:43;;;;;;;7.07;3.80;;;;;;;;;;6255278;28;20049;-56
2022/08/07 10:02:18;;;;;;;6.65;3.40;;;;;;;;;;6258222;28;20056;-57
2022/08/07 10:05:49;;;;;;;6.53;3.80;;;;;;;;;;6254752;28;20053;-55
2022/08/07 10:09:15;;;;;;;6.43;3.10;;;;;;;;;;6253728;28;20545;-57
2022/08/07 10:12:48;;;;;;;5.68;3.40;;;;;;;;;;6256184;28;20419;-57
2022/08/07 10:16:22;;;;;;;5.97;3.40;;;;;;;;;;6254324;28;20674;-58
2022/08/07 10:20:02;;;;;;;4.15;3.10;;;;;;;;;;6248012;28;20053;-57
2022/08/07 10:23:41;;;;;;;6.18;3.00;;;;;;;;;;6257186;28;20056;-58
2022/08/07 10:26:47;;;;;;;4.13;3.22;;;;;;;;;;6255395;28;20553;-53
2022/08/07 10:30:08;;;;;;;6.53;3.10;;;;;;;;;;6253540;28;20059;-56
2022/08/07 10:33:17;;;;;;;7.18;3.67;;;;;;;;;;6256567;28;20049;-60
2022/08/07 10:36:24;;;;;;;6.78;4.70;;;;;;;;;;6257364;28;20045;-54
2022/08/07 10:39:38;;;;;;;9.55;5.32;;;;;;;;;;6256345;28;20174;-58
2022/08/07 10:43:00;;;;;;;7.35;4.70;;;;;;;;;;6256867;28;20051;-57
2022/08/07 10:46:11;;;;;;;8.43;4.90;;;;;;;;;;6254002;28;20048;-56
2022/08/07 10:49:32;;;;;;;9.43;5.07;;;;;;;;;;6252434;28;20159;-59
2022/08/07 10:53:08;;;;;;;9.93;4.38;;;;;;;;;;6257179;28;20061;-58
2022/08/07 10:56:31;;;;;;;7.22;4.00;;;;;;;;;;6239403;28;20051;-59
2022/08/07 10:59:46;;;;;;;7.95;4.45;;;;;;;;;;6252153;28;20057;-58
2022/08/07 11:03:02;;;;;;;6.68;3.80;;;;;;;;;;6253939;28;20067;-56
2022/08/07 11:06:15;;;;;;;7.90;4.15;;;;;;;;;;6256664;28;21112;-57
2022/08/07 11:09:23;;;;;;;6.35;4.20;;;;;;;;;;6256596;28;20056;-54
2022/08/07 11:12:36;;;;;;;6.53;3.55;;;;;;;;;;6258406;28;20056;-55
2022/08/07 11:15:40;;;;;;;6.28;4.45;;;;;;;;;;6256833;28;20633;-58
2022/08/07 11:18:57;;;;;;;5.05;3.70;;;;;;;;;;6258901;28;20045;-61
2022/08/07 11:22:07;;;;;;;6.90;4.60;;;;;;;;;;6259050;28;20049;-59
2022/08/07 11:25:14;;;;;;;5.55;3.97;;;;;;;;;;6258373;28;20491;-61
2022/08/07 11:28:28;;;;;;;6.07;4.18;;;;;;;;;;6261082;28;20444;-59
2022/08/07 11:31:45;;;;;;;7.30;4.40;;;;;;;;;;6262872;28;20522;-56
2022/08/07 11:34:52;;;;;;;9.38;5.57;;;;;;;;;;6261411;28;20056;-57
2022/08/07 11:38:05;;;;;;;6.57;4.97;;;;;;;;;;6261075;28;20037;-61
2022/08/07 11:41:15;;;;;;;8.95;4.40;;;;;;;;;;6261423;28;20501;-56
2022/08/07 11:45:08;;;;;;;6.68;4.60;;;;;;;;;;6263765;28;20060;-60
2022/08/07 11:48:46;;;;;;;6.28;3.78;;;;;;;;;;6249552;28;20503;-56
2022/08/07 11:52:05;;;;;;;5.07;3.85;;;;;;;;;;6261882;28;20061;-58
2022/08/07 11:55:11;;;;;;;6.70;3.72;;;;;;;;;;6257403;28;20254;-60
2022/08/07 11:58:37;;;;;;;8.70;3.90;;;;;;;;;;6257571;28;20061;-57
2022/08/07 12:01:55;;;;;;;5.97;3.70;;;;;;;;;;6257376;28;20064;-59
2022/08/07 12:05:17;;;;;;;5.28;3.33;;;;;;;;;;6256985;28;20045;-59
2022/08/07 12:08:27;;;;;;;4.97;2.83;;;;;;;;;;6257542;28;20072;-57
2022/08/07 12:11:38;;;;;;;6.05;3.30;;;;;;;;;;6256744;28;20045;-59
2022/08/07 12:14:50;;;;;;;7.10;3.50;;;;;;;;;;6256404;28;20055;-60
2022/08/07 12:17:53;;;;;;;;;;;;;;;;;;6256092;28;20508;-58
2022/08/07 12:21:10;;;;;;;3.95;2.80;;;;;;;;;;6257066;28;19939;-58
2022/08/07 12:24:32;;;;;;;5.45;3.00;;;;;;;;;;6259312;28;20136;-60
2022/08/07 12:27:38;;;;;;;5.30;2.85;;;;;;;;;;6259413;28;20468;-58
2022/08/07 12:30:42;;;;;;;7.18;3.00;;;;;;;;;;6255468;28;20056;-59
2022/08/07 12:33:45;;;;;;;5.25;3.38;;;;;;;;;;6259008;28;20056;-58
2022/08/07 12:36:47;;;;;;;4.63;2.85;;;;;;;;;;6256975;28;20106;-61
2022/08/07 12:39:49;;;;;;;5.85;3.40;;;;;;;;;;6256365;28;20053;-60
2022/08/07 12:42:52;;;;;;;5.00;3.03;;;;;;;;;;6257450;28;20480;-62
2022/08/07 12:46:17;;;;;;;5.28;2.95;;;;;;;;;;6255783;28;20181;-58
2022/08/07 12:49:30;;;;;;;6.70;2.83;;;;;;;;;;6255428;28;20052;-59
2022/08/07 12:52:33;;;;;;;6.07;3.00;;;;;;;;;;6260541;28;20048;-58
2022/08/07 12:55:39;;;;;;;6.47;2.80;;;;;;;;;;6261237;28;20080;-57
2022/08/07 12:58:44;;;;;;;6.07;3.42;;;;;;;;;;6257255;28;20045;-58
2022/08/07 13:03:01;;;;;;;4.90;2.63;;;;;;;;;;6259078;28;20057;-58
2022/08/07 13:06:23;;;;;;;5.07;2.70;;;;;;;;;;6058371;29;20061;-58
2022/08/07 13:09:33;;;;;;;5.57;3.17;;;;;;;;;;6085746;28;20142;-57
2022/08/07 13:13:07;;;;;;;6.13;3.17;;;;;;;;;;6256945;28;20053;-61
2022/08/07 13:16:07;;;;;;;7.18;3.35;;;;;;;;;;6253605;28;20059;-58
2022/08/07 13:19:27;;;;;;;4.37;3.07;;;;;;;;;;6255688;28;20452;-58
2022/08/07 13:22:49;;;;;;;5.28;3.35;;;;;;;;;;6256579;28;20098;-56
2022/08/07 13:26:00;;;;;;;5.20;3.03;;;;;;;;;;6254435;28;21203;-60
2022/08/07 13:29:18;;;;;;;7.18;2.70;;;;;;;;;;6252859;28;20908;-57
2022/08/07 13:32:37;;;;;;;3.58;2.40;;;;;;;;;;6255382;28;20053;-57
2022/08/07 13:35:43;;;;;;;5.72;2.53;;;;;;;;;;6256687;28;20049;-61
2022/08/07 13:39:01;;;;;;;7.00;2.67;;;;;;;;;;6254539;28;20049;-61
2022/08/07 13:42:02;;;;;;;5.65;3.25;;;;;;;;;;6254888;28;20487;-58
2022/08/07 13:45:07;;;;;;;5.45;3.55;;;;;;;;;;6253937;28;20059;-56
2022/08/07 13:48:10;;;;;;;6.78;3.85;;;;;;;;;;6246538;28;20061;-60
2022/08/07 13:51:13;;;;;;;5.90;3.53;;;;;;;;;;6248468;28;20407;-57
2022/08/07 13:54:16;;;;;;;6.28;3.80;;;;;;;;;;6251268;28;20049;-55
2022/08/07 13:57:24;;;;;;;9.73;7.45;;;;;;;;;;6255282;28;20082;-58
2022/08/07 14:00:35;;;;;;;4.25;3.00;;;;;;;;;;6253125;28;20057;-58
2022/08/07 14:03:39;;;;;;;5.95;3.05;;;;;;;;;;6253822;28;20059;-53
2022/08/07 14:06:43;;;;;;;4.85;2.78;;;;;;;;;;6253593;28;20788;-60
2022/08/07 14:09:44;;;;;;;5.10;3.00;;;;;;;;;;6250532;28;20074;-59
2022/08/07 14:12:57;;;;;;;6.13;3.53;;;;;;;;;;6252603;28;20045;-61
2022/08/07 14:16:04;;;;;;;3.92;2.63;;;;;;;;;;6250356;28;20112;-57
2022/08/07 14:19:16;;;;;;;4.20;2.85;;;;;;;;;;6248935;28;20055;-58
2022/08/07 14:22:21;;;;;;;4.10;3.03;;;;;;;;;;6251472;28;20052;-58
2022/08/07 14:25:26;;;;;;;8.05;4.35;;;;;;;;;;6249572;28;20127;-55
2022/08/07 14:28:29;;;;;;;7.97;3.90;;;;;;;;;;6249417;28;20053;-56
2022/08/07 14:31:30;;;;;;;7.65;3.28;;;;;;;;;;6250694;28;20156;-59
2022/08/07 14:34:32;;;;;;;;;;;;;;;;;;6250350;28;20486;-62
2022/08/07 14:37:34;;;;;;;5.15;2.88;;;;;;;;;;6247625;28;19929;-57
2022/08/07 14:40:36;;;;;;;7.80;3.70;;;;;;;;;;6257526;28;20044;-62
2022/08/07 14:43:42;;;;;;;;;;;;;;;;;;6253948;28;20614;-59
2022/08/07 14:46:44;;;;;;;5.00;3.20;;;;;;;;;;6255050;28;20013;-58
2022/08/07 14:49:46;;;;;;;6.13;3.35;;;;;;;;;;6249620;28;22509;-59
2022/08/07 14:52:49;;;;;;;7.30;4.20;;;;;;;;;;6255339;28;20050;-59
2022/08/07 14:55:51;;;;;;;5.70;3.50;;;;;;;;;;6252218;28;20049;-60
2022/08/07 14:58:55;;;;;;;5.20;2.90;;;;;;;;;;6251039;28;20049;-58
2022/08/07 15:02:06;;;;;;;7.40;3.28;;;;;;;;;;6254360;28;20067;-58
2022/08/07 15:05:08;;;;;;;5.65;3.60;;;;;;;;;;6252011;28;20056;-57
2022/08/07 15:08:10;;;;;;;5.20;3.38;;;;;;;;;;6254813;28;20193;-54
2022/08/07 15:11:13;;;;;;;6.30;2.95;;;;;;;;;;6254991;28;20052;-59
2022/08/07 15:14:21;;;;;;;7.93;3.15;;;;;;;;;;6253492;28;20061;-59
2022/08/07 15:17:31;;;;;;;5.10;3.08;;;;;;;;;;6249537;28;20086;-57
2022/08/07 15:20:36;;;;;;;4.43;2.90;;;;;;;;;;6254350;28;20048;-56
2022/08/07 15:23:38;;;;;;;5.53;2.83;;;;;;;;;;6254024;28;20053;-59
2022/08/07 15:26:44;;;;;;;4.07;2.85;;;;;;;;;;6256322;28;20376;-53
2022/08/07 15:29:50;;;;;;;4.85;3.13;;;;;;;;;;6253495;28;20053;-63
2022/08/07 15:32:51;;;;;;;5.97;3.60;;;;;;;;;;6256776;28;20044;-56
2022/08/07 15:35:55;;;;;;;4.50;3.20;;;;;;;;;;6255434;28;20049;-57
2022/08/07 15:39:04;;;;;;;8.00;3.50;;;;;;;;;;6252896;28;20167;-59
2022/08/07 15:42:06;;;;;;;7.32;3.88;;;;;;;;;;6254176;28;20406;-56
2022/08/07 15:45:11;;;;;;;5.18;2.92;;;;;;;;;;6251953;28;20064;-61
2022/08/07 15:48:11;;;;;;;4.05;3.22;;;;;;;;;;6252126;28;20082;-54
2022/08/07 15:51:15;;;;;;;5.07;3.47;;;;;;;;;;6251432;28;20049;-55
2022/08/07 15:54:17;;;;;;;5.78;3.40;;;;;;;;;;6255824;28;20671;-58
2022/08/07 15:57:23;;;;;;;4.43;3.38;;;;;;;;;;6251540;28;20056;-55
2022/08/07 16:00:31;;;;;;;5.60;3.30;;;;;;;;;;6252501;28;20055;-60
2022/08/07 16:03:36;;;;;;;5.18;3.35;;;;;;;;;;6253791;28;20052;-58
2022/08/07 16:06:49;;;;;;;4.75;3.15;;;;;;;;;;6252440;28;20057;-59
2022/08/07 16:09:55;;;;;;;5.70;2.90;;;;;;;;;;6250490;28;20053;-57
2022/08/07 16:13:18;;;;;;;5.95;2.90;;;;;;;;;;6249921;28;20069;-52
2022/08/07 16:16:48;;;;;;;5.97;3.15;;;;;;;;;;6250988;28;20523;-53
2022/08/07 16:19:54;;;;;;;6.47;3.20;;;;;;;;;;6248077;28;20144;-58
2022/08/07 16:23:00;;;;;;;5.30;3.17;;;;;;;;;;6250851;28;20049;-61
2022/08/07 16:26:01;;;;;;;6.70;3.95;;;;;;;;;;6252386;28;20047;-56
2022/08/07 16:29:28;;;;;;;6.67;3.70;;;;;;;;;;6247362;28;20057;-58
2022/08/07 16:32:41;;;;;;;6.35;3.70;;;;;;;;;;6252083;28;20044;-57
2022/08/07 16:36:04;;;;;;;6.88;4.38;;;;;;;;;;6254264;28;21371;-58
2022/08/07 16:39:31;;;;;;;7.28;4.50;;;;;;;;;;6250856;28;20051;-59
2022/08/07 16:42:57;;;;;;;5.55;3.53;;;;;;;;;;6252486;28;20583;-53
2022/08/07 16:46:23;;;;;;;6.45;3.70;;;;;;;;;;6250713;28;20052;-58
2022/08/07 16:49:59;;;;;;;5.70;3.70;;;;;;;;;;6250009;28;20057;-59
2022/08/07 16:53:08;;;;;;;6.97;4.35;;;;;;;;;;6250346;28;20045;-56
2022/08/07 16:56:31;;;;;;;5.43;3.38;;;;;;;;;;6248206;28;20049;-57
2022/08/07 17:00:00;;;;;;;5.70;3.60;;;;;;;;;;6252276;28;20507;-55
2022/08/07 17:03:10;;;;;;;11.35;5.32;;;;;;;;;;6251303;28;20111;-56
2022/08/07 17:06:20;;;;;;;7.07;4.07;;;;;;;;;;6253203;28;20504;-54
2022/08/07 17:09:34;;;;;;;7.38;4.38;;;;;;;;;;6246903;28;20056;-55
2022/08/07 17:12:45;;;;;;;6.03;3.75;;;;;;;;;;6250989;28;20518;-55
2022/08/07 17:15:58;;;;;;;7.50;4.07;;;;;;;;;;6250130;28;20072;-56
2022/08/07 17:19:09;;;;;;;6.05;3.63;;;;;;;;;;6249159;28;20302;-58
2022/08/07 17:22:34;;;;;;;4.85;3.70;;;;;;;;;;6255255;28;20059;-57
2022/08/07 17:26:07;;;;;;;8.70;4.40;;;;;;;;;;6251415;28;20040;-59
2022/08/07 17:29:20;;;;;;;7.35;4.03;;;;;;;;;;6248800;28;20063;-60
2022/08/07 17:32:34;;;;;;;10.00;5.03;;;;;;;;;;6250875;28;20543;-58
2022/08/07 17:35:44;;;;;;;8.73;6.57;;;;;;;;;;6252533;28;20098;-60
2022/08/07 17:39:07;;;;;;;7.72;4.78;;;;;;;;;;6247693;28;20097;-57
2022/08/07 17:42:25;;;;;;;7.40;4.60;;;;;;;;;;6252414;28;20051;-59
2022/08/07 17:45:39;;;;;;;8.85;5.50;;;;;;;;;;6249954;28;20040;-60
2022/08/07 17:49:06;;;;;;;8.65;3.70;;;;;;;;;;6247710;28;20068;-52
2022/08/07 17:52:12;;;;;;;6.80;3.92;;;;;;;;;;6250593;28;20050;-58
2022/08/07 17:55:15;;;;;;;6.28;4.68;;;;;;;;;;6250592;28;20053;-58
2022/08/07 17:58:30;;;;;;;9.15;5.18;;;;;;;;;;6247593;28;20080;-54
2022/08/07 18:01:51;;;;;;;7.40;5.00;;;;;;;;;;6250752;28;20083;-60
2022/08/07 18:05:03;;;;;;;6.78;4.40;;;;;;;;;;6254578;28;20053;-58
2022/08/07 18:08:17;;;;;;;10.85;5.65;;;;;;;;;;6254915;28;20053;-58
2022/08/07 18:11:41;;;;;;;5.55;4.15;;;;;;;;;;6252022;28;20051;-60
2022/08/07 18:15:01;;;;;;;13.48;8.88;;;;;;;;;;6248661;28;20040;-60
2022/08/07 18:18:09;;;;;;;13.38;8.38;;;;;;;;;;6248739;28;20052;-59
2022/08/07 18:21:16;;;;;;;12.95;7.45;;;;;;;;;;6251704;28;20060;-59
2022/08/07 18:24:40;;;;;;;11.43;7.13;;;;;;;;;;6248380;28;20063;-59
2022/08/07 18:28:14;;;;;;;8.75;6.28;;;;;;;;;;6248305;28;20040;-52
2022/08/07 18:31:41;;;;;;;7.93;5.22;;;;;;;;;;6249095;28;20055;-55
2022/08/07 18:34:47;;;;;;;7.43;4.80;;;;;;;;;;6250191;28;20190;-60
2022/08/07 18:38:18;;;;;;;8.77;4.40;;;;;;;;;;6247115;28;20037;-55
2022/08/07 18:41:38;;;;;;;5.55;4.05;;;;;;;;;;6249540;28;20045;-59
2022/08/07 18:45:00;;;;;;;7.75;4.32;;;;;;;;;;6248930;28;20052;-51